createdAt,value
2022-12-28T00:04:15.980Z,58.75
2022-12-28T00:09:18.841Z,58.60
2022-12-28T00:14:23.020Z,58.51
2022-12-28T00:19:25.862Z,58.45
2022-12-28T00:24:28.599Z,58.54
2022-12-28T00:29:32.707Z,58.67
2022-12-28T00:34:35.530Z,58.43
2022-12-28T00:39:38.278Z,58.56
2022-12-28T00:44:42.809Z,58.61
2022-12-28T00:49:45.506Z,58.61
2022-12-28T00:54:48.210Z,58.82
2022-12-28T00:59:52.295Z,58.78
2022-12-28T01:04:55.014Z,59.15
2022-12-28T01:09:57.796Z,58.94
2022-12-28T01:15:01.892Z,59.10
2022-12-28T01:20:05.655Z,59.00
2022-12-28T01:25:09.262Z,59.03
2022-12-28T01:30:15.882Z,58.82
2022-12-28T01:35:18.787Z,58.80
2022-12-28T01:40:21.591Z,58.85
2022-12-28T01:45:25.833Z,58.90
2022-12-28T01:50:30.488Z,58.99
2022-12-28T01:55:37.566Z,59.05
2022-12-28T02:00:42.284Z,58.86
2022-12-28T02:05:49.487Z,58.91
2022-12-28T02:10:53.144Z,58.91
2022-12-28T02:15:57.307Z,59.04
2022-12-28T02:21:26.361Z,58.95
2022-12-28T02:26:47.127Z,59.14
2022-12-28T02:31:59.326Z,59.10
2022-12-28T02:37:08.748Z,59.05
2022-12-28T02:42:13.665Z,59.06
2022-12-28T02:47:35.877Z,59.05
2022-12-28T02:53:06.749Z,59.12
2022-12-28T02:58:30.288Z,59.14
2022-12-28T03:03:43.417Z,59.19
2022-12-28T03:08:57.282Z,59.13
2022-12-28T03:14:04.610Z,59.25
2022-12-28T03:19:29.957Z,59.11
2022-12-28T03:24:58.289Z,59.25
2022-12-28T03:30:25.520Z,59.37
2022-12-28T03:35:41.986Z,59.47
2022-12-28T03:40:50.538Z,59.15
2022-12-28T03:46:01.359Z,59.48
2022-12-28T03:51:06.386Z,59.66
2022-12-28T03:56:11.752Z,59.74
2022-12-28T04:01:16.331Z,59.78
2022-12-28T04:06:21.504Z,59.74
2022-12-28T04:11:25.206Z,59.84
2022-12-28T04:16:30.086Z,59.69
2022-12-28T04:21:34.252Z,59.84
2022-12-28T04:26:37.183Z,59.83
2022-12-28T04:31:40.294Z,59.71
2022-12-28T04:36:48.310Z,59.82
2022-12-28T04:41:54.584Z,59.99
2022-12-28T04:46:57.468Z,60.42
2022-12-28T04:52:01.638Z,60.73
2022-12-28T04:57:04.483Z,61.30
2022-12-28T05:02:07.407Z,61.83
2022-12-28T05:07:11.590Z,62.37
2022-12-28T05:12:14.402Z,62.81
2022-12-28T05:17:17.237Z,63.17
2022-12-28T05:22:21.346Z,63.53
2022-12-28T05:27:24.137Z,63.71
2022-12-28T05:32:26.999Z,64.04
2022-12-28T05:37:31.214Z,64.64
2022-12-28T05:42:35.643Z,64.88
2022-12-28T05:47:38.402Z,65.06
2022-12-28T05:52:42.491Z,65.33
2022-12-28T05:57:45.424Z,65.77
2022-12-28T06:02:48.470Z,65.91
2022-12-28T06:07:54.150Z,66.09
2022-12-28T06:12:56.935Z,66.56
2022-12-28T06:17:59.806Z,66.77
2022-12-28T06:23:03.903Z,67.02
2022-12-28T06:28:06.654Z,67.09
2022-12-28T06:33:09.427Z,67.23
2022-12-28T06:38:13.553Z,67.32
2022-12-28T06:43:17.254Z,67.50
2022-12-28T06:48:20.012Z,67.67
2022-12-28T06:53:24.334Z,67.95
2022-12-28T06:58:28.034Z,67.84
2022-12-28T07:03:30.912Z,67.94
2022-12-28T07:08:35.421Z,68.05
2022-12-28T07:13:38.609Z,68.24
2022-12-28T07:18:42.065Z,68.24
2022-12-28T07:23:46.230Z,68.50
2022-12-28T07:28:50.663Z,68.49
2022-12-28T07:33:55.436Z,68.74
2022-12-28T07:39:00.338Z,68.71
2022-12-28T07:44:03.275Z,68.99
2022-12-28T07:49:06.938Z,69.22
2022-12-28T07:54:11.268Z,69.26
2022-12-28T07:59:14.230Z,69.50
2022-12-28T08:04:18.332Z,69.66
2022-12-28T08:09:22.733Z,69.72
2022-12-28T08:14:25.428Z,69.62
2022-12-28T08:19:28.209Z,69.78
2022-12-28T08:24:32.326Z,69.78
2022-12-28T08:29:35.066Z,69.90
2022-12-28T08:34:37.841Z,69.89
2022-12-28T08:39:41.965Z,69.57
2022-12-28T08:44:44.688Z,69.33
2022-12-28T08:49:48.690Z,69.41
2022-12-28T08:54:52.775Z,69.04
2022-12-28T08:59:55.549Z,68.59
2022-12-28T09:04:58.587Z,68.72
2022-12-28T09:10:02.784Z,68.57
2022-12-28T09:15:06.544Z,60.34
2022-12-28T09:20:10.417Z,62.12
2022-12-28T09:25:14.643Z,63.07
2022-12-28T09:30:17.864Z,61.65
2022-12-28T09:35:20.703Z,63.24
2022-12-28T09:40:24.987Z,63.58
2022-12-28T09:45:28.393Z,64.04
2022-12-28T09:50:33.170Z,64.45
2022-12-28T09:55:39.599Z,64.48
2022-12-28T10:00:45.510Z,66.30
2022-12-28T10:05:48.998Z,66.98
2022-12-28T10:10:54.376Z,67.39
2022-12-28T10:15:57.581Z,67.37
2022-12-28T10:21:01.216Z,66.54
2022-12-28T10:26:06.803Z,65.88
2022-12-28T10:31:11.256Z,60.27
2022-12-28T10:36:15.681Z,53.25
2022-12-28T10:41:22.779Z,50.89
2022-12-28T10:46:26.615Z,50.16
2022-12-28T10:51:31.047Z,49.86
2022-12-28T10:56:48.982Z,52.40
2022-12-28T11:01:52.225Z,54.03
2022-12-28T11:06:57.343Z,55.05
2022-12-28T11:12:23.252Z,56.40
2022-12-28T11:17:28.113Z,57.29
2022-12-28T11:22:31.914Z,58.37
2022-12-28T11:27:37.334Z,54.18
2022-12-28T11:32:47.445Z,52.16
2022-12-28T11:37:51.737Z,53.95
2022-12-28T11:42:57.255Z,54.98
2022-12-28T11:48:33.436Z,55.90
2022-12-28T11:53:54.449Z,56.89
2022-12-28T11:59:07.480Z,57.18
2022-12-28T12:04:38.493Z,57.94
2022-12-28T12:09:44.193Z,58.35
2022-12-28T12:14:53.945Z,58.91
2022-12-28T12:20:01.270Z,59.33
2022-12-28T12:25:10.332Z,59.98
2022-12-28T12:30:18.539Z,60.36
2022-12-28T12:35:23.776Z,55.36
2022-12-28T12:40:51.433Z,58.48
2022-12-28T12:46:08.893Z,58.86
2022-12-28T12:51:26.814Z,59.56
2022-12-28T12:56:40.796Z,60.14
2022-12-28T13:01:52.080Z,60.31
2022-12-28T13:06:59.207Z,60.84
2022-12-28T13:12:03.290Z,61.23
2022-12-28T13:17:15.649Z,60.90
2022-12-28T13:22:29.908Z,60.90
2022-12-28T13:27:36.194Z,61.00
2022-12-28T13:32:52.224Z,61.53
2022-12-28T13:38:03.879Z,61.52
2022-12-28T13:43:27.037Z,62.19
2022-12-28T13:48:32.759Z,62.41
2022-12-28T13:53:35.826Z,62.49
2022-12-28T13:58:47.971Z,62.70
2022-12-28T14:04:08.848Z,62.78
2022-12-28T14:09:23.520Z,62.99
2022-12-28T14:14:26.437Z,63.75
2022-12-28T14:19:30.782Z,63.89
2022-12-28T14:24:33.531Z,64.17
2022-12-28T14:29:36.376Z,64.22
2022-12-28T14:34:40.741Z,64.15
2022-12-28T14:39:46.457Z,64.15
2022-12-28T14:44:54.248Z,64.39
2022-12-28T14:50:01.200Z,64.48
2022-12-28T14:55:30.363Z,64.79
2022-12-28T15:00:35.405Z,65.01
2022-12-28T15:05:43.455Z,65.21
2022-12-28T15:10:52.551Z,65.19
2022-12-28T15:15:58.209Z,65.21
2022-12-28T15:21:06.713Z,65.44
2022-12-28T15:26:09.963Z,65.63
2022-12-28T15:31:14.704Z,65.53
2022-12-28T15:36:21.118Z,65.92
2022-12-28T15:41:41.728Z,66.09
2022-12-28T15:46:44.909Z,66.32
2022-12-28T15:51:49.245Z,66.41
2022-12-28T15:56:53.894Z,66.49
2022-12-28T16:01:56.723Z,66.58
2022-12-28T16:07:00.936Z,66.61
2022-12-28T16:12:03.931Z,66.67
2022-12-28T16:17:06.770Z,66.65
2022-12-28T16:22:10.880Z,66.74
2022-12-28T16:27:13.718Z,66.72
2022-12-28T16:32:16.478Z,66.68
2022-12-28T16:37:20.759Z,66.77
2022-12-28T16:42:23.520Z,66.71
2022-12-28T16:47:26.290Z,66.69
2022-12-28T16:52:30.417Z,66.82
2022-12-28T16:57:33.178Z,66.58
2022-12-28T17:02:36.150Z,65.96
2022-12-28T17:07:40.433Z,65.25
2022-12-28T17:12:43.232Z,64.72
2022-12-28T17:17:46.101Z,64.48
2022-12-28T17:22:50.293Z,64.28
2022-12-28T17:27:53.237Z,63.97
2022-12-28T17:32:56.302Z,63.97
2022-12-28T17:38:00.597Z,63.88
2022-12-28T17:43:04.186Z,63.55
2022-12-28T17:48:07.310Z,63.52
2022-12-28T17:53:11.555Z,63.26
2022-12-28T17:58:14.492Z,63.12
2022-12-28T18:03:17.255Z,62.88
2022-12-28T18:08:22.940Z,62.74
2022-12-28T18:13:25.924Z,62.52
2022-12-28T18:18:28.692Z,62.30
2022-12-28T18:23:34.194Z,62.06
2022-12-28T18:28:37.417Z,61.76
2022-12-28T18:33:40.192Z,61.66
2022-12-28T18:38:44.861Z,61.39
2022-12-28T18:43:47.973Z,61.18
2022-12-28T18:48:50.706Z,61.15
2022-12-28T18:53:54.837Z,61.01
2022-12-28T18:58:58.789Z,60.97
2022-12-28T19:04:01.915Z,61.11
2022-12-28T19:09:07.778Z,60.87
2022-12-28T19:14:13.251Z,60.40
2022-12-28T19:19:17.211Z,60.38
2022-12-28T19:24:22.451Z,60.39
2022-12-28T19:29:25.352Z,60.31
2022-12-28T19:34:28.144Z,60.39
2022-12-28T19:39:32.318Z,60.26
2022-12-28T19:44:35.044Z,59.85
2022-12-28T19:49:37.976Z,59.70
2022-12-28T19:54:42.416Z,59.59
2022-12-28T19:59:45.177Z,59.38
2022-12-28T20:04:47.997Z,59.05
2022-12-28T20:09:52.298Z,59.10
2022-12-28T20:14:55.100Z,59.05
2022-12-28T20:19:57.839Z,59.02
2022-12-28T20:25:02.458Z,58.65
2022-12-28T20:30:06.074Z,58.77
2022-12-28T20:35:09.042Z,58.33
2022-12-28T20:40:13.794Z,58.49
2022-12-28T20:45:16.581Z,58.16
2022-12-28T20:50:19.438Z,58.08
2022-12-28T20:55:23.567Z,58.09
2022-12-28T21:00:26.432Z,57.95
2022-12-28T21:05:29.296Z,58.50
2022-12-28T21:10:33.490Z,57.99
2022-12-28T21:15:40.624Z,57.99
2022-12-28T21:20:46.140Z,57.73
2022-12-28T21:25:50.237Z,57.87
2022-12-28T21:30:56.264Z,57.58
2022-12-28T21:36:00.465Z,57.57
2022-12-28T21:41:07.740Z,57.34
2022-12-28T21:46:13.169Z,57.56
2022-12-28T21:56:50.741Z,57.26
2022-12-28T22:02:11.695Z,57.13
2022-12-28T22:07:16.539Z,56.98
2022-12-28T22:12:36.924Z,57.08
2022-12-28T22:17:39.938Z,56.92
2022-12-28T22:22:44.582Z,57.13
2022-12-28T22:27:48.753Z,57.14
2022-12-28T22:32:51.661Z,57.10
2022-12-28T22:37:54.606Z,57.62
2022-12-28T22:42:58.776Z,57.38
2022-12-28T22:48:01.499Z,57.44
2022-12-28T22:53:04.314Z,57.36
2022-12-28T22:58:08.619Z,57.35
2022-12-28T23:03:11.413Z,57.49
2022-12-28T23:08:14.163Z,57.56
2022-12-28T23:13:18.493Z,57.61
2022-12-28T23:18:38.743Z,58.04
2022-12-28T23:23:58.887Z,58.13
2022-12-28T23:29:03.145Z,57.78
2022-12-28T23:34:05.927Z,57.69
2022-12-28T23:39:08.719Z,58.05
2022-12-28T23:44:12.889Z,57.90
2022-12-28T23:49:17.156Z,57.73
2022-12-28T23:54:20.935Z,57.69
2022-12-28T23:59:25.200Z,57.50
